Fort St John Airport
CYXJ : now visible

Airfield :











YOU CAN JOIN US ON...

 
LOGIN :

Register | Disclaimer

   EN    FR    IT 

 









Legend :    VFR   Marginal VFR   IFR   Intensive IFR   Very Intensive IFR
Visi :
Ceiling :
>= 8 km
>= 3000ft
5 to 8 km
1000 to 3000 ft
1500m to 5 km
500 to 1000 ft
800 to 1500m
200 to 500 ft
< 800m
< 200 ft
Symbols :   Thunderstorms  Fog  Heavy snow  Heavy precipitations  Wind > 20 kt







- Airport Elevation : 2280 ft
- IATA code : YXJ


CYXJ - Fort St John

CURRENT METAR :
  • 260436Z 34012KT 15SM -SHRA FEW050 SCT090 BKN140 10/08 A3006 RMK CU2AC2AC1 PRESRR SLP196

EXPIRED METARs :
  • 260400Z 25006KT 60SM FEW085 SCT130 09/07 A3003 RMK AC2AC1 SLP187
  • 260300Z 29003KT 60SM FEW040TCU SCT080 SCT130 11/08 A3002 RMK TCU1AC2AC1 AC TR SLP182 DENSITY ALT 2300FT
  • 260200Z 34009G15KT 60SM FEW040CB SCT080 SCT220 12/08 A3000 RMK CB1AC2CI1 SLP177 DENSITY ALT 2400FT

TAF TAF CYXJ
Valid from the 26 at 01:00 until the 26 at 13:00 UTC


260038Z 2601/2613 36010KT P6SM SCT050 BKN180
TEMPO 2601/2603 P6SM VCTS BKN050CB
BECMG 2601/2603 27008KT
FM260300 25006KT P6SM SCT080 RMK NXT FCST BY 260700Z
No reported NOTAMs for that airfield.



MET'MAP, your aeronautical weather chart ! - Copyright ORBIFLY December 2007 - Disclaimer

ORBIFLY MET'MAP TEAM :

Programming & Development : Alexandra Zaïnal
Concept & Development : Baudouin d'Aumeries
Co-Development & Prog : Marc-Olivier Méhu
Technical & hardware support : Manuel Goepfert

Contact : metmap@orbifly.com




SOURCES & CREDITS :

   NOAA       Earth
Advisory